Trout River, New York
Current Conditions -  °F | °C
As of 5:31 AM on Thursday 18 Dec 2014 (Local Time) from KMSS Reporting Station
Light Snow Light Snow  
Wind Chill: 25°   Ceiling: 700
Heat Index: 33°   Visibility: 3mi
Dew Point: 31°   Wind: 9mph
Humidity: 92%   Direction: 250°WSW
Pressure: 29.85"   Gusts: NA
Location:  44.9516°N, 74.3293°W
Report Text: KMSS 181031Z AUTO 25008KT 3SM -SN BR BKN007 OVC015 01/M01 A2985 RMK AO2 P0000 T00061006
Loading
Personal Weather Stations






























Interactive Weather Map New forecast layout! Learn more

10-Day Weather Forecast

Advertisements
Track Severe Weather on mobile